createdAt,value
2022-09-13T00:02:53.144Z,8.15
2022-09-13T00:07:59.986Z,6.53
2022-09-13T00:13:08.887Z,6.93
2022-09-13T00:18:12.485Z,7.30
2022-09-13T00:23:15.908Z,6.72
2022-09-13T00:28:19.261Z,7.05
2022-09-13T00:33:22.732Z,6.40
2022-09-13T00:38:26.132Z,6.95
2022-09-13T00:43:45.270Z,7.00
2022-09-13T00:48:53.406Z,6.30
2022-09-13T00:54:00.090Z,7.22
2022-09-13T00:59:13.288Z,6.13
2022-09-13T01:04:19.763Z,6.95
2022-09-13T01:09:24.196Z,7.25
2022-09-13T01:14:28.300Z,8.55
2022-09-13T01:19:32.261Z,7.60
2022-09-13T01:24:54.107Z,7.32
2022-09-13T01:30:12.903Z,7.85
2022-09-13T01:35:21.927Z,7.07
2022-09-13T01:41:04.888Z,7.07
2022-09-13T01:46:31.718Z,7.03
2022-09-13T01:51:44.385Z,6.13
2022-09-13T02:02:11.918Z,7.50
2022-09-13T02:07:22.537Z,6.65
2022-09-13T02:12:32.147Z,7.00
2022-09-13T02:17:42.948Z,8.15
2022-09-13T02:22:52.544Z,7.60
2022-09-13T02:28:02.588Z,7.03
2022-09-13T02:33:32.173Z,7.50
2022-09-13T02:38:49.306Z,6.78
2022-09-13T02:44:13.435Z,7.00
2022-09-13T02:49:31.683Z,6.78
2022-09-13T02:54:53.277Z,8.32
2022-09-13T02:59:57.436Z,7.35
2022-09-13T03:05:02.160Z,6.95
2022-09-13T03:10:09.808Z,8.20
2022-09-13T03:15:36.657Z,6.88
2022-09-13T03:21:06.000Z,8.10
2022-09-13T03:26:40.106Z,7.07
2022-09-13T03:32:02.909Z,6.60
2022-09-13T03:37:36.600Z,7.10
2022-09-13T03:42:43.123Z,8.13
2022-09-13T03:47:48.792Z,7.13
2022-09-13T03:52:58.703Z,7.53
2022-09-13T03:58:10.278Z,7.07
2022-09-13T04:03:16.813Z,8.00
2022-09-13T04:08:20.162Z,7.00
2022-09-13T04:13:23.773Z,7.55
2022-09-13T04:18:27.206Z,8.02
2022-09-13T04:23:31.194Z,7.63
2022-09-13T04:28:34.660Z,6.97
2022-09-13T04:33:39.199Z,6.72
2022-09-13T04:38:43.145Z,8.52
2022-09-13T04:43:50.622Z,7.65
2022-09-13T04:48:54.320Z,7.82
2022-09-13T04:53:58.910Z,9.40
2022-09-13T04:59:02.275Z,8.98
2022-09-13T05:04:07.121Z,6.28
2022-09-13T05:09:14.633Z,7.60
2022-09-13T05:14:18.069Z,10.52
2022-09-13T05:19:21.245Z,6.63
2022-09-13T05:24:25.127Z,7.03
2022-09-13T05:29:28.680Z,5.85
2022-09-13T05:34:31.931Z,6.68
2022-09-13T05:39:48.819Z,5.57
2022-09-13T05:44:59.647Z,6.57
2022-09-13T05:50:13.546Z,7.10
2022-09-13T05:55:23.139Z,6.30
2022-09-13T06:00:26.540Z,5.90
2022-09-13T06:05:32.000Z,7.88
2022-09-13T06:10:36.624Z,7.57
2022-09-13T06:15:43.270Z,7.50
2022-09-13T06:20:47.971Z,6.78
2022-09-13T06:25:51.480Z,7.40
2022-09-13T06:31:04.452Z,7.68
2022-09-13T06:36:16.367Z,8.15
2022-09-13T06:41:24.348Z,7.00
2022-09-13T06:46:33.947Z,7.57
2022-09-13T06:51:37.605Z,7.90
2022-09-13T06:56:40.848Z,7.03
2022-09-13T07:01:44.755Z,7.95
2022-09-13T07:06:49.971Z,6.43
2022-09-13T07:11:55.658Z,7.03
2022-09-13T07:16:59.293Z,8.90
2022-09-13T07:22:02.592Z,6.60
2022-09-13T07:27:05.927Z,6.32
2022-09-13T07:32:09.904Z,7.47
2022-09-13T07:37:13.395Z,8.80
2022-09-13T07:42:17.010Z,8.93
2022-09-13T07:47:20.278Z,8.27
2022-09-13T07:52:23.825Z,6.18
2022-09-13T07:57:27.931Z,9.27
2022-09-13T08:02:31.383Z,8.00
2022-09-13T08:07:36.290Z,5.82
2022-09-13T08:12:41.786Z,5.15
2022-09-13T08:17:45.822Z,6.55
2022-09-13T08:22:49.232Z,5.70
2022-09-13T08:27:52.837Z,6.10
2022-09-13T08:32:56.079Z,5.38
2022-09-13T08:38:00.640Z,6.65
2022-09-13T08:43:12.476Z,6.20
2022-09-13T08:48:21.036Z,6.05
2022-09-13T08:53:24.232Z,5.80
2022-09-13T08:58:43.744Z,5.95
2022-09-13T09:03:57.987Z,5.50
2022-09-13T09:09:08.735Z,5.28
2022-09-13T09:14:33.259Z,5.23
2022-09-13T09:19:39.062Z,7.18
2022-09-13T09:24:47.847Z,7.38
2022-09-13T09:29:55.169Z,6.00
2022-09-13T09:35:07.085Z,5.63
2022-09-13T09:40:14.036Z,5.70
2022-09-13T09:45:27.849Z,5.03
2022-09-13T09:50:38.896Z,5.05
2022-09-13T09:56:23.661Z,7.07
2022-09-13T10:01:33.158Z,4.57
2022-09-13T10:06:41.398Z,5.10
2022-09-13T10:11:53.945Z,6.00
2022-09-13T10:17:21.726Z,6.13
2022-09-13T10:22:26.724Z,5.13
2022-09-13T10:27:38.662Z,5.22
2022-09-13T10:32:46.172Z,5.47
2022-09-13T10:37:50.070Z,6.38
2022-09-13T10:42:57.500Z,6.47
2022-09-13T10:48:14.835Z,6.30
2022-09-13T10:53:36.390Z,7.70
2022-09-13T10:58:39.700Z,9.40
2022-09-13T11:03:48.898Z,6.47
2022-09-13T11:09:10.620Z,6.25
2022-09-13T11:14:27.109Z,8.00
2022-09-13T11:19:30.849Z,7.78
2022-09-13T11:24:34.297Z,7.35
2022-09-13T11:30:10.416Z,6.70
2022-09-13T11:35:35.685Z,6.57
2022-09-13T11:40:47.536Z,6.30
2022-09-13T11:46:06.300Z,7.72
2022-09-13T11:51:35.895Z,5.20
2022-09-13T11:57:02.937Z,6.03
2022-09-13T12:02:32.617Z,6.47
2022-09-13T12:08:11.116Z,7.43
2022-09-13T12:13:25.132Z,5.88
2022-09-13T12:18:31.879Z,6.80
2022-09-13T12:23:48.033Z,4.55
2022-09-13T12:29:16.915Z,5.72
2022-09-13T12:34:30.442Z,5.47
2022-09-13T12:39:42.676Z,5.57
2022-09-13T12:45:14.841Z,8.45
2022-09-13T12:50:44.668Z,8.65
2022-09-13T12:56:03.710Z,6.07
2022-09-13T13:01:12.601Z,8.10
2022-09-13T13:06:33.921Z,5.50
2022-09-13T13:11:46.879Z,5.70
2022-09-13T13:16:50.739Z,5.05
2022-09-13T13:21:54.267Z,4.68
2022-09-13T13:26:59.628Z,4.35
2022-09-13T13:32:02.992Z,5.05
2022-09-13T13:37:28.563Z,4.75
2022-09-13T13:42:32.689Z,4.63
2022-09-13T13:47:35.841Z,3.22
2022-09-13T13:52:48.576Z,4.47
2022-09-13T13:58:04.670Z,4.50
2022-09-13T14:03:25.828Z,5.50
2022-09-13T14:14:05.650Z,4.55
2022-09-13T14:19:15.147Z,4.00
2022-09-13T14:24:21.853Z,4.22
2022-09-13T14:29:25.869Z,4.53
2022-09-13T14:34:35.034Z,5.55
2022-09-13T14:39:38.594Z,4.28
2022-09-13T14:44:46.891Z,3.92
2022-09-13T14:50:11.772Z,4.70
2022-09-13T14:55:24.423Z,4.65
2022-09-13T15:00:48.791Z,4.10
2022-09-13T15:06:26.937Z,3.90
2022-09-13T15:11:36.196Z,5.55
2022-09-13T15:17:11.219Z,3.95
2022-09-13T15:22:19.309Z,3.78
2022-09-13T15:27:43.482Z,3.40
2022-09-13T15:32:46.779Z,3.90
2022-09-13T15:38:00.823Z,3.85
2022-09-13T15:43:04.026Z,3.42
2022-09-13T15:48:08.031Z,3.88
2022-09-13T15:53:12.189Z,4.88
2022-09-13T15:58:15.684Z,4.53
2022-09-13T16:03:18.950Z,4.25
2022-09-13T16:08:22.154Z,4.10
2022-09-13T16:13:25.437Z,3.70
2022-09-13T16:18:28.812Z,4.22
2022-09-13T16:23:32.463Z,4.68
2022-09-13T16:28:36.050Z,3.88
2022-09-13T16:33:39.420Z,3.65
2022-09-13T16:38:42.706Z,4.10
2022-09-13T16:43:45.852Z,3.75
2022-09-13T16:48:56.285Z,3.88
2022-09-13T16:53:59.850Z,4.00
2022-09-13T16:59:03.123Z,4.25
2022-09-13T17:04:06.404Z,4.65
2022-09-13T17:09:10.067Z,4.00
2022-09-13T17:14:14.610Z,4.60
2022-09-13T17:19:28.533Z,3.58
2022-09-13T17:24:32.164Z,3.75
2022-09-13T17:29:36.254Z,3.65
2022-09-13T17:34:39.579Z,3.85
2022-09-13T17:39:43.628Z,3.85
2022-09-13T17:44:47.325Z,4.70
2022-09-13T17:49:50.557Z,3.85
2022-09-13T17:54:54.006Z,4.00
2022-09-13T17:59:58.909Z,4.05
2022-09-13T18:05:06.450Z,4.30
2022-09-13T18:10:32.292Z,3.47
2022-09-13T18:15:35.403Z,5.28
2022-09-13T18:20:40.744Z,3.83
2022-09-13T18:25:44.213Z,4.43
2022-09-13T18:30:59.964Z,4.70
2022-09-13T18:36:04.954Z,4.18
2022-09-13T18:41:09.455Z,4.03
2022-09-13T18:46:16.059Z,3.65
2022-09-13T18:51:28.004Z,3.83
2022-09-13T18:56:32.239Z,4.80
2022-09-13T19:01:38.593Z,5.03
2022-09-13T19:06:47.143Z,7.63
2022-09-13T19:11:53.042Z,5.60
2022-09-13T19:16:59.755Z,5.10
2022-09-13T19:22:04.577Z,5.03
2022-09-13T19:27:08.385Z,4.78
2022-09-13T19:32:12.030Z,5.63
2022-09-13T19:37:15.468Z,5.47
2022-09-13T19:42:20.288Z,6.05
2022-09-13T19:48:12.935Z,5.57
2022-09-13T19:52:47.143Z,5.95
2022-09-13T19:57:50.645Z,5.78
2022-09-13T20:02:55.237Z,5.55
2022-09-13T20:07:58.548Z,6.20
2022-09-13T20:13:01.579Z,5.65
2022-09-13T20:18:04.859Z,5.90
2022-09-13T20:23:09.061Z,7.85
2022-09-13T20:28:12.981Z,6.15
2022-09-13T20:33:16.443Z,5.93
2022-09-13T20:38:20.690Z,6.28
2022-09-13T20:43:24.167Z,5.50
2022-09-13T20:48:27.665Z,6.28
2022-09-13T20:53:32.601Z,6.00
2022-09-13T20:58:37.377Z,5.13
2022-09-13T21:03:43.263Z,5.82
2022-09-13T21:08:48.897Z,5.85
2022-09-13T21:13:55.638Z,5.45
2022-09-13T21:18:59.120Z,5.45
2022-09-13T21:24:03.361Z,5.32
2022-09-13T21:29:07.279Z,4.68
2022-09-13T21:34:16.842Z,4.82
2022-09-13T21:39:20.384Z,4.20
2022-09-13T21:44:23.752Z,4.35
2022-09-13T21:49:27.297Z,3.80
2022-09-13T21:54:31.133Z,4.88
2022-09-13T21:59:34.524Z,4.38
2022-09-13T22:04:39.813Z,4.55
2022-09-13T22:09:48.118Z,4.47
2022-09-13T22:14:53.893Z,4.28
2022-09-13T22:19:56.982Z,3.88
2022-09-13T22:25:00.130Z,4.75
2022-09-13T22:30:05.057Z,4.15
2022-09-13T22:35:09.091Z,3.70
2022-09-13T22:40:12.805Z,3.90
2022-09-13T22:45:16.418Z,3.38
2022-09-13T22:50:20.017Z,3.83
2022-09-13T22:55:23.580Z,3.58
2022-09-13T23:00:28.644Z,3.60
2022-09-13T23:05:32.293Z,3.55
2022-09-13T23:10:35.697Z,3.47
2022-09-13T23:15:39.111Z,4.13
2022-09-13T23:20:42.743Z,4.10
2022-09-13T23:25:46.211Z,4.05
2022-09-13T23:30:50.352Z,3.92
2022-09-13T23:35:57.983Z,3.30
2022-09-13T23:41:02.408Z,3.35
2022-09-13T23:46:06.473Z,2.70
2022-09-13T23:51:12.419Z,3.08
2022-09-13T23:56:15.647Z,3.65
